^^
Station Historical Data
Daily Summary for August 19, 2017 Units:  Both    English   Metric
« Previous Day
Next Day »
Daily Weekly Monthly Yearly Custom
  High: Low: Average:
Temperature: 74.8 °F /  23.8 °C 39.6 °F /  4.2 °C 56.5 °F /  13.6 °C
Dew Point: 18.3 °F /  -7.6 °C 11.5 °F /  -11.4 °C 14.4 °F /  -9.8 °C
Humidity: 35% 10% 21%
Wind Speed: 6.0mph /  9.7km/h - 0.4mph /  0.6km/h
Wind Gust: 10.0mph /  16.1km/h - -
Wind- - SW
Pressure: 30.44 in /  1030.7 hPa 30.30 in /  1026 hPa -
Precipitation: 0.00 in /  0 mm    
Historical Graphs
 
 
Tabular Data for August 19, 2017
Time Temperature Dew Point Pressure Wind Wind Speed Wind Gust Humidity Rainfall Rate (Hourly) solar Conditions
00:04 46.2 °F /  7.9 °C 12.4 °F /  -10.9 °C 30.37in /  1028.3hPa Calm     25% 0.00in /  0mm 0.0 W/m2
00:11 45.9 °F /  7.7 °C 12.0 °F /  -11.1 °C 30.38in /  1028.7hPa Calm     25% 0.00in /  0mm 0.0 W/m2
00:17 45.5 °F /  7.5 °C 11.7 °F /  -11.3 °C 30.38in /  1028.7hPa Calm   1.0mph /  1.6km/h 25% 0.00in /  0mm 0.0 W/m2
00:23 45.1 °F /  7.3 °C 12.2 °F /  -11 °C 30.38in /  1028.7hPa Calm     26% 0.00in /  0mm 0.0 W/m2
00:29 45.0 °F /  7.2 °C 12.2 °F /  -11 °C 30.38in /  1028.7hPa Calm     26% 0.00in /  0mm 0.0 W/m2
00:35 44.8 °F /  7.1 °C 12.0 °F /  -11.1 °C 30.38in /  1028.7hPa Calm     26% 0.00in /  0mm 0.0 W/m2
00:41 44.4 °F /  6.9 °C 12.6 °F /  -10.8 °C 30.38in /  1028.7hPa Calm     27% 0.00in /  0mm 0.0 W/m2
00:48 44.1 °F /  6.7 °C 12.2 °F /  -11 °C 30.38in /  1028.7hPa Calm     27% 0.00in /  0mm 0.0 W/m2
00:54 43.9 °F /  6.6 °C 12.0 °F /  -11.1 °C 30.38in /  1028.7hPa Calm     27% 0.00in /  0mm 0.0 W/m2
01:00 43.5 °F /  6.4 °C 11.7 °F /  -11.3 °C 30.37in /  1028.3hPa Calm     27% 0.00in /  0mm 0.0 W/m2
01:06 43.3 °F /  6.3 °C 12.4 °F /  -10.9 °C 30.37in /  1028.3hPa Calm     28% 0.00in /  0mm 0.0 W/m2
01:12 43.2 °F /  6.2 °C 12.2 °F /  -11 °C 30.37in /  1028.3hPa Calm     28% 0.00in /  0mm 0.0 W/m2
01:18 43.0 °F /  6.1 °C 12.0 °F /  -11.1 °C 30.37in /  1028.3hPa Calm     28% 0.00in /  0mm 0.0 W/m2
01:24 42.6 °F /  5.9 °C 12.6 °F /  -10.8 °C 30.37in /  1028.3hPa Calm     29% 0.00in /  0mm 0.0 W/m2
01:30 42.6 °F /  5.9 °C 13.3 °F /  -10.4 °C 30.37in /  1028.3hPa Calm     30% 0.00in /  0mm 0.0 W/m2
01:36 42.6 °F /  5.9 °C 12.6 °F /  -10.8 °C 30.36in /  1028hPa Calm     29% 0.00in /  0mm 0.0 W/m2
01:42 43.2 °F /  6.2 °C 13.1 °F /  -10.5 °C 30.36in /  1028hPa Calm     29% 0.00in /  0mm 0.0 W/m2
01:48 43.5 °F /  6.4 °C 12.6 °F /  -10.8 °C 30.36in /  1028hPa Calm     28% 0.00in /  0mm 0.0 W/m2
01:57 44.1 °F /  6.7 °C 12.2 °F /  -11 °C 30.35in /  1027.7hPa Calm     27% 0.00in /  0mm 0.0 W/m2
02:03 44.4 °F /  6.9 °C 12.6 °F /  -10.8 °C 30.35in /  1027.7hPa Calm     27% 0.00in /  0mm 0.0 W/m2
02:09 44.8 °F /  7.1 °C 12.7 °F /  -10.7 °C 30.35in /  1027.7hPa Calm   1.0mph /  1.6km/h 27% 0.00in /  0mm 0.0 W/m2
02:15 44.8 °F /  7.1 °C 12.0 °F /  -11.1 °C 30.35in /  1027.7hPa Calm   2.0mph /  3.2km/h 26% 0.00in /  0mm 0.0 W/m2
02:21 44.4 °F /  6.9 °C 11.7 °F /  -11.3 °C 30.35in /  1027.7hPa Calm   1.0mph /  1.6km/h 26% 0.00in /  0mm 0.0 W/m2
02:27 44.2 °F /  6.8 °C 11.5 °F /  -11.4 °C 30.35in /  1027.7hPa Calm     26% 0.00in /  0mm 0.0 W/m2
02:33 43.9 °F /  6.6 °C 12.0 °F /  -11.1 °C 30.34in /  1027.3hPa Calm     27% 0.00in /  0mm 0.0 W/m2
02:40 43.7 °F /  6.5 °C 12.7 °F /  -10.7 °C 30.35in /  1027.7hPa Calm     28% 0.00in /  0mm 0.0 W/m2
02:46 43.5 °F /  6.4 °C 12.6 °F /  -10.8 °C 30.34in /  1027.3hPa Calm     28% 0.00in /  0mm 0.0 W/m2
02:52 43.3 °F /  6.3 °C 12.4 °F /  -10.9 °C 30.35in /  1027.7hPa Calm     28% 0.00in /  0mm 0.0 W/m2
02:58 43.2 °F /  6.2 °C 12.2 °F /  -11 °C 30.35in /  1027.7hPa Calm     28% 0.00in /  0mm 0.0 W/m2
03:04 43.0 °F /  6.1 °C 12.0 °F /  -11.1 °C 30.35in /  1027.7hPa Calm     28% 0.00in /  0mm 0.0 W/m2
03:10 42.6 °F /  5.9 °C 11.8 °F /  -11.2 °C 30.35in /  1027.7hPa Calm     28% 0.00in /  0mm 0.0 W/m2
03:17 42.6 °F /  5.9 °C 11.8 °F /  -11.2 °C 30.35in /  1027.7hPa Calm     28% 0.00in /  0mm 0.0 W/m2
03:23 42.4 °F /  5.8 °C 11.7 °F /  -11.3 °C 30.35in /  1027.7hPa Calm     28% 0.00in /  0mm 0.0 W/m2
03:29 42.3 °F /  5.7 °C 11.5 °F /  -11.4 °C 30.35in /  1027.7hPa Calm     28% 0.00in /  0mm 0.0 W/m2
03:35 42.1 °F /  5.6 °C 12.0 °F /  -11.1 °C 30.35in /  1027.7hPa Calm     29% 0.00in /  0mm 0.0 W/m2
03:41 42.1 °F /  5.6 °C 12.0 °F /  -11.1 °C 30.35in /  1027.7hPa Calm     29% 0.00in /  0mm 0.0 W/m2
03:47 42.3 °F /  5.7 °C 12.2 °F /  -11 °C 30.35in /  1027.7hPa Calm     29% 0.00in /  0mm 0.0 W/m2
03:53 42.1 °F /  5.6 °C 12.0 °F /  -11.1 °C 30.36in /  1028hPa Calm     29% 0.00in /  0mm 0.0 W/m2
04:00 42.1 °F /  5.6 °C 12.0 °F /  -11.1 °C 30.36in /  1028hPa Calm     29% 0.00in /  0mm 0.0 W/m2
04:06 41.7 °F /  5.4 °C 12.6 °F /  -10.8 °C 30.36in /  1028hPa Calm     30% 0.00in /  0mm 0.0 W/m2
04:18 41.7 °F /  5.4 °C 11.8 °F /  -11.2 °C 30.36in /  1028hPa Calm   1.0mph /  1.6km/h 29% 0.00in /  0mm 0.0 W/m2
04:24 42.1 °F /  5.6 °C 12.0 °F /  -11.1 °C 30.36in /  1028hPa Calm     29% 0.00in /  0mm 0.0 W/m2
04:30 42.3 °F /  5.7 °C 12.2 °F /  -11 °C 30.36in /  1028hPa Calm   1.0mph /  1.6km/h 29% 0.00in /  0mm 0.0 W/m2
04:36 42.4 °F /  5.8 °C 12.4 °F /  -10.9 °C 30.36in /  1028hPa Calm     29% 0.00in /  0mm 0.0 W/m2
04:43 42.3 °F /  5.7 °C 12.2 °F /  -11 °C 30.36in /  1028hPa Calm     29% 0.00in /  0mm 0.0 W/m2
04:49 42.1 °F /  5.6 °C 12.0 °F /  -11.1 °C 30.36in /  1028hPa Calm     29% 0.00in /  0mm 0.0 W/m2
04:55 41.7 °F /  5.4 °C 12.6 °F /  -10.8 °C 30.36in /  1028hPa Calm   1.0mph /  1.6km/h 30% 0.00in /  0mm 0.0 W/m2
05:01 41.5 °F /  5.3 °C 12.4 °F /  -10.9 °C 30.37in /  1028.3hPa Calm   1.0mph /  1.6km/h 30% 0.00in /  0mm 0.0 W/m2
05:07 41.4 °F /  5.2 °C 12.9 °F /  -10.6 °C 30.37in /  1028.3hPa Calm     31% 0.00in /  0mm 0.0 W/m2
05:13 41.2 °F /  5.1 °C 12.7 °F /  -10.7 °C 30.37in /  1028.3hPa Calm   1.0mph /  1.6km/h 31% 0.00in /  0mm 0.0 W/m2
05:20 41.0 °F /  5 °C 12.7 °F /  -10.7 °C 30.37in /  1028.3hPa Calm     31% 0.00in /  0mm 0.0 W/m2
05:26 40.8 °F /  4.9 °C 12.6 °F /  -10.8 °C 30.37in /  1028.3hPa Calm   1.0mph /  1.6km/h 31% 0.00in /  0mm 0.0 W/m2
05:32 40.6 °F /  4.8 °C 13.1 °F /  -10.5 °C 30.37in /  1028.3hPa Calm     32% 0.00in /  0mm 0.0 W/m2
05:38 40.5 °F /  4.7 °C 12.9 °F /  -10.6 °C 30.37in /  1028.3hPa Calm     32% 0.00in /  0mm 0.0 W/m2
05:44 40.3 °F /  4.6 °C 12.7 °F /  -10.7 °C 30.38in /  1028.7hPa Calm     32% 0.00in /  0mm 0.0 W/m2
05:50 40.3 °F /  4.6 °C 12.7 °F /  -10.7 °C 30.38in /  1028.7hPa Calm     32% 0.00in /  0mm 0.0 W/m2
05:56 39.9 °F /  4.4 °C 13.1 °F /  -10.5 °C 30.38in /  1028.7hPa Calm     33% 0.00in /  0mm 0.0 W/m2
06:03 39.9 °F /  4.4 °C 13.1 °F /  -10.5 °C 30.39in /  1029hPa Calm     33% 0.00in /  0mm 0.0 W/m2
06:09 39.7 °F /  4.3 °C 13.6 °F /  -10.2 °C 30.39in /  1029hPa Calm     34% 0.00in /  0mm 0.0 W/m2
06:15 39.6 °F /  4.2 °C 12.7 °F /  -10.7 °C 30.40in /  1029.3hPa Calm     33% 0.00in /  0mm 0.0 W/m2
06:21 39.6 °F /  4.2 °C 13.5 °F /  -10.3 °C 30.40in /  1029.3hPa Calm   1.0mph /  1.6km/h 34% 0.00in /  0mm 5.0 W/m2
06:27 39.6 °F /  4.2 °C 13.5 °F /  -10.3 °C 30.40in /  1029.3hPa Calm     34% 0.00in /  0mm 9.0 W/m2
06:33 39.6 °F /  4.2 °C 13.5 °F /  -10.3 °C 30.40in /  1029.3hPa Calm     34% 0.00in /  0mm 11.0 W/m2
06:39 39.6 °F /  4.2 °C 13.5 °F /  -10.3 °C 30.40in /  1029.3hPa Calm     34% 0.00in /  0mm 12.0 W/m2
06:46 39.6 °F /  4.2 °C 14.2 °F /  -9.9 °C 30.40in /  1029.3hPa Calm   1.0mph /  1.6km/h 35% 0.00in /  0mm 12.0 W/m2
06:52 39.6 °F /  4.2 °C 14.2 °F /  -9.9 °C 30.40in /  1029.3hPa Calm     35% 0.00in /  0mm 14.0 W/m2
06:58 39.7 °F /  4.3 °C 14.4 °F /  -9.8 °C 30.40in /  1029.3hPa Calm   1.0mph /  1.6km/h 35% 0.00in /  0mm 16.0 W/m2
07:04 40.1 °F /  4.5 °C 14.7 °F /  -9.6 °C 30.41in /  1029.7hPa Calm     35% 0.00in /  0mm 18.0 W/m2
07:10 40.5 °F /  4.7 °C 14.4 °F /  -9.8 °C 30.41in /  1029.7hPa Calm     34% 0.00in /  0mm 18.0 W/m2
07:16 41.2 °F /  5.1 °C 14.9 °F /  -9.5 °C 30.41in /  1029.7hPa Calm     34% 0.00in /  0mm 19.0 W/m2
07:22 41.9 °F /  5.5 °C 14.9 °F /  -9.5 °C 30.41in /  1029.7hPa Calm     33% 0.00in /  0mm 21.0 W/m2
07:29 42.8 °F /  6 °C 15.6 °F /  -9.1 °C 30.41in /  1029.7hPa NE 0.9mph /  1.4km/h 2.0mph /  3.2km/h 33% 0.00in /  0mm 21.0 W/m2
07:35 44.2 °F /  6.8 °C 15.4 °F /  -9.2 °C 30.42in /  1030hPa Calm   2.0mph /  3.2km/h 31% 0.00in /  0mm 21.0 W/m2
07:37 44.8 °F /  7.1 °C 16.0 °F /  -8.9 °C 30.42in /  1030hPa Calm   1.0mph /  1.6km/h 31% 0.00in /  0mm 23.0 W/m2
07:43 46.0 °F /  7.8 °C 15.6 °F /  -9.1 °C 30.42in /  1030hPa Calm   3.0mph /  4.8km/h 29% 0.00in /  0mm 23.0 W/m2
07:49 47.5 °F /  8.6 °C 15.1 °F /  -9.4 °C 30.42in /  1030hPa Calm   2.0mph /  3.2km/h 27% 0.00in /  0mm 25.0 W/m2
07:55 48.9 °F /  9.4 °C 16.3 °F /  -8.7 °C 30.42in /  1030hPa Calm   2.0mph /  3.2km/h 27% 0.00in /  0mm 25.0 W/m2
08:01 50.0 °F /  10 °C 15.6 °F /  -9.1 °C 30.43in /  1030.4hPa Calm   2.0mph /  3.2km/h 25% 0.00in /  0mm 26.0 W/m2
08:07 50.7 °F /  10.4 °C 16.2 °F /  -8.8 °C 30.43in /  1030.4hPa Calm     25% 0.00in /  0mm 26.0 W/m2
08:14 51.4 °F /  10.8 °C 15.8 °F /  -9 °C 30.43in /  1030.4hPa Calm     24% 0.00in /  0mm 28.0 W/m2
08:20 52.3 °F /  11.3 °C 15.6 °F /  -9.1 °C 30.43in /  1030.4hPa Calm   2.0mph /  3.2km/h 23% 0.00in /  0mm 28.0 W/m2
08:26 52.9 °F /  11.6 °C 16.2 °F /  -8.8 °C 30.43in /  1030.4hPa Calm     23% 0.00in /  0mm 30.0 W/m2
08:32 53.6 °F /  12 °C 16.7 °F /  -8.5 °C 30.43in /  1030.4hPa Calm     23% 0.00in /  0mm 148.0 W/m2
08:38 54.7 °F /  12.6 °C 16.5 °F /  -8.6 °C 30.43in /  1030.4hPa Calm     22% 0.00in /  0mm 499.0 W/m2
08:44 56.5 °F /  13.6 °C 15.8 °F /  -9 °C 30.43in /  1030.4hPa Calm   3.0mph /  4.8km/h 20% 0.00in /  0mm 519.0 W/m2
08:51 58.1 °F /  14.5 °C 17.2 °F /  -8.2 °C 30.43in /  1030.4hPa Calm   1.0mph /  1.6km/h 20% 0.00in /  0mm 536.0 W/m2
08:57 59.5 °F /  15.3 °C 16.0 °F /  -8.9 °C 30.43in /  1030.4hPa Calm   2.0mph /  3.2km/h 18% 0.00in /  0mm 559.0 W/m2
09:03 60.6 °F /  15.9 °C 16.9 °F /  -8.4 °C 30.44in /  1030.7hPa Calm   1.0mph /  1.6km/h 18% 0.00in /  0mm 577.0 W/m2
09:09 61.5 °F /  16.4 °C 17.6 °F /  -8 °C 30.44in /  1030.7hPa ENE 0.9mph /  1.4km/h 5.0mph /  8km/h 18% 0.00in /  0mm 594.0 W/m2
09:15 62.1 °F /  16.7 °C 16.7 °F /  -8.5 °C 30.44in /  1030.7hPa Calm   4.0mph /  6.4km/h 17% 0.00in /  0mm 610.0 W/m2
09:21 62.8 °F /  17.1 °C 16.0 °F /  -8.9 °C 30.43in /  1030.4hPa NE 2.9mph /  4.7km/h 5.0mph /  8km/h 16% 0.00in /  0mm 628.0 W/m2
09:27 63.1 °F /  17.3 °C 16.2 °F /  -8.8 °C 30.43in /  1030.4hPa Calm   3.0mph /  4.8km/h 16% 0.00in /  0mm 643.0 W/m2
09:33 63.7 °F /  17.6 °C 18.0 °F /  -7.8 °C 30.43in /  1030.4hPa Calm   1.0mph /  1.6km/h 17% 0.00in /  0mm 657.0 W/m2
09:40 64.6 °F /  18.1 °C 17.4 °F /  -8.1 °C 30.43in /  1030.4hPa NNW 0.9mph /  1.4km/h 3.0mph /  4.8km/h 16% 0.00in /  0mm 675.0 W/m2
09:46 64.9 °F /  18.3 °C 17.6 °F /  -8 °C 30.43in /  1030.4hPa Calm   1.0mph /  1.6km/h 16% 0.00in /  0mm 687.0 W/m2
09:52 65.5 °F /  18.6 °C 16.5 °F /  -8.6 °C 30.43in /  1030.4hPa NW 2.0mph /  3.2km/h 4.0mph /  6.4km/h 15% 0.00in /  0mm 701.0 W/m2
09:58 65.7 °F /  18.7 °C 16.7 °F /  -8.5 °C 30.43in /  1030.4hPa Calm   2.0mph /  3.2km/h 15% 0.00in /  0mm 714.0 W/m2
10:04 65.8 °F /  18.8 °C 16.9 °F /  -8.4 °C 30.43in /  1030.4hPa Calm   3.0mph /  4.8km/h 15% 0.00in /  0mm 722.0 W/m2
10:10 65.7 °F /  18.7 °C 16.7 °F /  -8.5 °C 30.43in /  1030.4hPa Calm   3.0mph /  4.8km/h 15% 0.00in /  0mm 735.0 W/m2
10:16 65.8 °F /  18.8 °C 16.9 °F /  -8.4 °C 30.42in /  1030hPa Calm   4.0mph /  6.4km/h 15% 0.00in /  0mm 747.0 W/m2
10:22 66.0 °F /  18.9 °C 17.1 °F /  -8.3 °C 30.42in /  1030hPa Calm   2.0mph /  3.2km/h 15% 0.00in /  0mm 758.0 W/m2
10:29 66.4 °F /  19.1 °C 17.2 °F /  -8.2 °C 30.42in /  1030hPa NNW 2.0mph /  3.2km/h 2.0mph /  3.2km/h 15% 0.00in /  0mm 768.0 W/m2
10:35 66.7 °F /  19.3 °C 17.6 °F /  -8 °C 30.42in /  1030hPa Calm   1.0mph /  1.6km/h 15% 0.00in /  0mm 775.0 W/m2
10:41 67.5 °F /  19.7 °C 18.1 °F /  -7.7 °C 30.42in /  1030hPa Calm   1.0mph /  1.6km/h 15% 0.00in /  0mm 784.0 W/m2
10:47 67.6 °F /  19.8 °C 18.3 °F /  -7.6 °C 30.42in /  1030hPa Calm   2.0mph /  3.2km/h 15% 0.00in /  0mm 791.0 W/m2
10:53 67.8 °F /  19.9 °C 16.9 °F /  -8.4 °C 30.41in /  1029.7hPa Calm   4.0mph /  6.4km/h 14% 0.00in /  0mm 798.0 W/m2
10:59 68.4 °F /  20.2 °C 17.2 °F /  -8.2 °C 30.41in /  1029.7hPa Calm   2.0mph /  3.2km/h 14% 0.00in /  0mm 802.0 W/m2
11:05 68.5 °F /  20.3 °C 17.4 °F /  -8.1 °C 30.40in /  1029.3hPa North 2.0mph /  3.2km/h 3.0mph /  4.8km/h 14% 0.00in /  0mm 809.0 W/m2
11:11 69.1 °F /  20.6 °C 18.0 °F /  -7.8 °C 30.40in /  1029.3hPa Calm   2.0mph /  3.2km/h 14% 0.00in /  0mm 816.0 W/m2
11:18 69.6 °F /  20.9 °C 16.5 °F /  -8.6 °C 30.40in /  1029.3hPa NW 0.9mph /  1.4km/h 4.0mph /  6.4km/h 13% 0.00in /  0mm 816.0 W/m2
11:24 70.0 °F /  21.1 °C 16.9 °F /  -8.4 °C 30.39in /  1029hPa Calm   3.0mph /  4.8km/h 13% 0.00in /  0mm 821.0 W/m2
11:30 70.0 °F /  21.1 °C 16.9 °F /  -8.4 °C 30.39in /  1029hPa West 2.0mph /  3.2km/h 8.0mph /  12.9km/h 13% 0.00in /  0mm 821.0 W/m2
11:36 70.2 °F /  21.2 °C 17.1 °F /  -8.3 °C 30.39in /  1029hPa NW 0.9mph /  1.4km/h 4.0mph /  6.4km/h 13% 0.00in /  0mm 826.0 W/m2
11:42 70.5 °F /  21.4 °C 17.2 °F /  -8.2 °C 30.38in /  1028.7hPa WNW 2.0mph /  3.2km/h 3.0mph /  4.8km/h 13% 0.00in /  0mm 830.0 W/m2
11:48 70.9 °F /  21.6 °C 17.6 °F /  -8 °C 30.38in /  1028.7hPa Calm   1.0mph /  1.6km/h 13% 0.00in /  0mm 823.0 W/m2
11:54 71.4 °F /  21.9 °C 16.2 °F /  -8.8 °C 30.37in /  1028.3hPa NNW 2.9mph /  4.7km/h 7.0mph /  11.3km/h 12% 0.00in /  0mm 830.0 W/m2
12:00 71.8 °F /  22.1 °C 16.5 °F /  -8.6 °C 30.37in /  1028.3hPa NW 2.0mph /  3.2km/h 7.0mph /  11.3km/h 12% 0.00in /  0mm 828.0 W/m2
12:07 72.1 °F /  22.3 °C 14.7 °F /  -9.6 °C 30.37in /  1028.3hPa NE 2.9mph /  4.7km/h 6.0mph /  9.7km/h 11% 0.00in /  0mm 824.0 W/m2
12:13 72.1 °F /  22.3 °C 16.7 °F /  -8.5 °C 30.36in /  1028hPa Calm   1.0mph /  1.6km/h 12% 0.00in /  0mm 823.0 W/m2
12:19 72.1 °F /  22.3 °C 16.7 °F /  -8.5 °C 30.36in /  1028hPa Calm   1.0mph /  1.6km/h 12% 0.00in /  0mm 821.0 W/m2
12:25 72.9 °F /  22.7 °C 17.2 °F /  -8.2 °C 30.36in /  1028hPa NNW 2.0mph /  3.2km/h 6.0mph /  9.7km/h 12% 0.00in /  0mm 816.0 W/m2
12:31 72.9 °F /  22.7 °C 17.2 °F /  -8.2 °C 30.36in /  1028hPa NNW 2.9mph /  4.7km/h 9.0mph /  14.5km/h 12% 0.00in /  0mm 809.0 W/m2
12:37 72.9 °F /  22.7 °C 17.2 °F /  -8.2 °C 30.35in /  1027.7hPa North 4.0mph /  6.4km/h 6.0mph /  9.7km/h 12% 0.00in /  0mm 803.0 W/m2
12:43 72.9 °F /  22.7 °C 17.2 °F /  -8.2 °C 30.35in /  1027.7hPa Calm   3.0mph /  4.8km/h 12% 0.00in /  0mm 798.0 W/m2
12:49 73.0 °F /  22.8 °C 15.4 °F /  -9.2 °C 30.35in /  1027.7hPa West 2.9mph /  4.7km/h 7.0mph /  11.3km/h 11% 0.00in /  0mm 789.0 W/m2
12:56 73.0 °F /  22.8 °C 15.4 °F /  -9.2 °C 30.35in /  1027.7hPa West 0.9mph /  1.4km/h 6.0mph /  9.7km/h 11% 0.00in /  0mm 782.0 W/m2
13:02 73.0 °F /  22.8 °C 17.4 °F /  -8.1 °C 30.34in /  1027.3hPa NE 6.0mph /  9.7km/h 6.0mph /  9.7km/h 12% 0.00in /  0mm 773.0 W/m2
13:08 73.2 °F /  22.9 °C 15.6 °F /  -9.1 °C 30.34in /  1027.3hPa North 2.9mph /  4.7km/h 5.0mph /  8km/h 11% 0.00in /  0mm 766.0 W/m2
13:14 73.2 °F /  22.9 °C 15.6 °F /  -9.1 °C 30.34in /  1027.3hPa North 0.9mph /  1.4km/h 8.0mph /  12.9km/h 11% 0.00in /  0mm 754.0 W/m2
13:20 73.2 °F /  22.9 °C 15.6 °F /  -9.1 °C 30.34in /  1027.3hPa WNW 2.0mph /  3.2km/h 5.0mph /  8km/h 11% 0.00in /  0mm 749.0 W/m2
13:26 73.2 °F /  22.9 °C 15.6 °F /  -9.1 °C 30.34in /  1027.3hPa North 4.0mph /  6.4km/h 7.0mph /  11.3km/h 11% 0.00in /  0mm 738.0 W/m2
13:32 73.4 °F /  23 °C 15.6 °F /  -9.1 °C 30.34in /  1027.3hPa Calm   1.0mph /  1.6km/h 11% 0.00in /  0mm 728.0 W/m2
13:38 73.8 °F /  23.2 °C 16.0 °F /  -8.9 °C 30.34in /  1027.3hPa NW 0.9mph /  1.4km/h 8.0mph /  12.9km/h 11% 0.00in /  0mm 715.0 W/m2
13:45 73.8 °F /  23.2 °C 16.0 °F /  -8.9 °C 30.33in /  1027hPa WNW 0.9mph /  1.4km/h 9.0mph /  14.5km/h 11% 0.00in /  0mm 707.0 W/m2
13:51 74.3 °F /  23.5 °C 16.3 °F /  -8.7 °C 30.33in /  1027hPa Calm   7.0mph /  11.3km/h 11% 0.00in /  0mm 687.0 W/m2
13:57 74.1 °F /  23.4 °C 16.2 °F /  -8.8 °C 30.33in /  1027hPa NE 0.9mph /  1.4km/h 3.0mph /  4.8km/h 11% 0.00in /  0mm 673.0 W/m2
14:03 73.9 °F /  23.3 °C 14.0 °F /  -10 °C 30.33in /  1027hPa North 2.0mph /  3.2km/h 2.0mph /  3.2km/h 10% 0.00in /  0mm 661.0 W/m2
14:09 73.9 °F /  23.3 °C 14.0 °F /  -10 °C 30.33in /  1027hPa NW 2.9mph /  4.7km/h 6.0mph /  9.7km/h 10% 0.00in /  0mm 649.0 W/m2
14:15 74.1 °F /  23.4 °C 14.0 °F /  -10 °C 30.32in /  1026.6hPa Calm   8.0mph /  12.9km/h 10% 0.00in /  0mm 631.0 W/m2
14:21 73.9 °F /  23.3 °C 16.2 °F /  -8.8 °C 30.32in /  1026.6hPa Calm     11% 0.00in /  0mm 613.0 W/m2
14:27 74.3 °F /  23.5 °C 16.3 °F /  -8.7 °C 30.32in /  1026.6hPa Calm     11% 0.00in /  0mm 599.0 W/m2
14:34 74.5 °F /  23.6 °C 14.4 °F /  -9.8 °C 30.31in /  1026.3hPa NNW 2.9mph /  4.7km/h 7.0mph /  11.3km/h 10% 0.00in /  0mm 584.0 W/m2
14:40 74.5 °F /  23.6 °C 14.4 °F /  -9.8 °C 30.31in /  1026.3hPa NNW 4.0mph /  6.4km/h 9.0mph /  14.5km/h 10% 0.00in /  0mm 564.0 W/m2
14:48 74.5 °F /  23.6 °C 14.4 °F /  -9.8 °C 30.31in /  1026.3hPa Calm   3.0mph /  4.8km/h 10% 0.00in /  0mm 538.0 W/m2
14:54 74.8 °F /  23.8 °C 14.5 °F /  -9.7 °C 30.30in /  1026hPa Calm     10% 0.00in /  0mm 519.0 W/m2
15:00 74.8 °F /  23.8 °C 14.5 °F /  -9.7 °C 30.30in /  1026hPa Calm   2.0mph /  3.2km/h 10% 0.00in /  0mm 504.0 W/m2
15:06 74.7 °F /  23.7 °C 14.5 °F /  -9.7 °C 30.30in /  1026hPa North 4.9mph /  7.9km/h 10.0mph /  16.1km/h 10% 0.00in /  0mm 483.0 W/m2
15:12 74.7 °F /  23.7 °C 14.5 °F /  -9.7 °C 30.30in /  1026hPa NW 2.9mph /  4.7km/h 9.0mph /  14.5km/h 10% 0.00in /  0mm 464.0 W/m2
15:18 74.5 °F /  23.6 °C 14.4 °F /  -9.8 °C 30.30in /  1026hPa North 2.9mph /  4.7km/h 7.0mph /  11.3km/h 10% 0.00in /  0mm 445.0 W/m2
15:24 74.1 °F /  23.4 °C 14.0 °F /  -10 °C 30.30in /  1026hPa Calm   4.0mph /  6.4km/h 10% 0.00in /  0mm 422.0 W/m2
15:31 74.5 °F /  23.6 °C 14.4 °F /  -9.8 °C 30.30in /  1026hPa NNW 2.9mph /  4.7km/h 5.0mph /  8km/h 10% 0.00in /  0mm 401.0 W/m2
15:37 74.5 °F /  23.6 °C 14.4 °F /  -9.8 °C 30.30in /  1026hPa Calm   3.0mph /  4.8km/h 10% 0.00in /  0mm 381.0 W/m2
15:43 74.1 °F /  23.4 °C 14.0 °F /  -10 °C 30.30in /  1026hPa Calm   1.0mph /  1.6km/h 10% 0.00in /  0mm 360.0 W/m2
15:49 74.1 °F /  23.4 °C 14.0 °F /  -10 °C 30.30in /  1026hPa ENE 0.9mph /  1.4km/h 2.0mph /  3.2km/h 10% 0.00in /  0mm 339.0 W/m2
15:55 73.9 °F /  23.3 °C 14.0 °F /  -10 °C 30.30in /  1026hPa West 2.0mph /  3.2km/h 6.0mph /  9.7km/h 10% 0.00in /  0mm 316.0 W/m2
16:01 73.8 °F /  23.2 °C 13.8 °F /  -10.1 °C 30.30in /  1026hPa West 2.0mph /  3.2km/h 5.0mph /  8km/h 10% 0.00in /  0mm 265.0 W/m2
16:07 73.6 °F /  23.1 °C 13.6 °F /  -10.2 °C 30.30in /  1026hPa Calm   6.0mph /  9.7km/h 10% 0.00in /  0mm 44.0 W/m2
16:13 73.2 °F /  22.9 °C 13.3 °F /  -10.4 °C 30.30in /  1026hPa Calm   1.0mph /  1.6km/h 10% 0.00in /  0mm 40.0 W/m2
16:20 73.2 °F /  22.9 °C 13.3 °F /  -10.4 °C 30.30in /  1026hPa Calm   1.0mph /  1.6km/h 10% 0.00in /  0mm 39.0 W/m2
16:26 72.9 °F /  22.7 °C 13.1 °F /  -10.5 °C 30.30in /  1026hPa Calm   3.0mph /  4.8km/h 10% 0.00in /  0mm 63.0 W/m2
16:32 72.7 °F /  22.6 °C 12.9 °F /  -10.6 °C 30.30in /  1026hPa Calm   8.0mph /  12.9km/h 10% 0.00in /  0mm 116.0 W/m2
16:38 72.3 °F /  22.4 °C 14.9 °F /  -9.5 °C 30.30in /  1026hPa Calm   2.0mph /  3.2km/h 11% 0.00in /  0mm 70.0 W/m2
16:44 72.0 °F /  22.2 °C 12.4 °F /  -10.9 °C 30.31in /  1026.3hPa Calm   4.0mph /  6.4km/h 10% 0.00in /  0mm 49.0 W/m2
16:50 71.6 °F /  22 °C 14.4 °F /  -9.8 °C 30.30in /  1026hPa Calm   2.0mph /  3.2km/h 11% 0.00in /  0mm 32.0 W/m2
16:56 71.2 °F /  21.8 °C 14.0 °F /  -10 °C 30.30in /  1026hPa Calm   4.0mph /  6.4km/h 11% 0.00in /  0mm 32.0 W/m2
17:03 70.7 °F /  21.5 °C 13.6 °F /  -10.2 °C 30.31in /  1026.3hPa NNW 2.0mph /  3.2km/h 2.0mph /  3.2km/h 11% 0.00in /  0mm 26.0 W/m2
17:09 70.3 °F /  21.3 °C 13.3 °F /  -10.4 °C 30.31in /  1026.3hPa NNW 0.9mph /  1.4km/h 4.0mph /  6.4km/h 11% 0.00in /  0mm 19.0 W/m2
17:15 69.8 °F /  21 °C 14.9 °F /  -9.5 °C 30.31in /  1026.3hPa Calm   1.0mph /  1.6km/h 12% 0.00in /  0mm 14.0 W/m2
17:21 69.4 °F /  20.8 °C 14.5 °F /  -9.7 °C 30.31in /  1026.3hPa Calm   3.0mph /  4.8km/h 12% 0.00in /  0mm 12.0 W/m2
17:27 68.9 °F /  20.5 °C 14.2 °F /  -9.9 °C 30.31in /  1026.3hPa Calm     12% 0.00in /  0mm 9.0 W/m2
17:33 68.4 °F /  20.2 °C 13.8 °F /  -10.1 °C 30.32in /  1026.6hPa Calm     12% 0.00in /  0mm 5.0 W/m2
17:39 67.8 °F /  19.9 °C 15.1 °F /  -9.4 °C 30.32in /  1026.6hPa Calm   1.0mph /  1.6km/h 13% 0.00in /  0mm 0.0 W/m2
17:45 67.3 °F /  19.6 °C 14.7 °F /  -9.6 °C 30.32in /  1026.6hPa Calm   1.0mph /  1.6km/h 13% 0.00in /  0mm 0.0 W/m2
17:52 66.6 °F /  19.2 °C 15.8 °F /  -9 °C 30.32in /  1026.6hPa Calm     14% 0.00in /  0mm 0.0 W/m2
17:58 65.8 °F /  18.8 °C 16.9 °F /  -8.4 °C 30.32in /  1026.6hPa Calm     15% 0.00in /  0mm 0.0 W/m2
18:04 65.1 °F /  18.4 °C 16.3 °F /  -8.7 °C 30.33in /  1027hPa Calm     15% 0.00in /  0mm 0.0 W/m2
18:10 64.6 °F /  18.1 °C 15.8 °F /  -9 °C 30.33in /  1027hPa Calm     15% 0.00in /  0mm 0.0 W/m2
18:16 63.7 °F /  17.6 °C 16.7 °F /  -8.5 °C 30.33in /  1027hPa Calm     16% 0.00in /  0mm 0.0 W/m2
18:22 63.0 °F /  17.2 °C 17.4 °F /  -8.1 °C 30.34in /  1027.3hPa Calm     17% 0.00in /  0mm 0.0 W/m2
18:28 62.1 °F /  16.7 °C 16.7 °F /  -8.5 °C 30.34in /  1027.3hPa Calm     17% 0.00in /  0mm 0.0 W/m2
18:34 61.2 °F /  16.2 °C 17.2 °F /  -8.2 °C 30.34in /  1027.3hPa Calm     18% 0.00in /  0mm 0.0 W/m2
18:40 60.6 °F /  15.9 °C 16.9 °F /  -8.4 °C 30.34in /  1027.3hPa Calm     18% 0.00in /  0mm 0.0 W/m2
18:46 60.1 °F /  15.6 °C 16.3 °F /  -8.7 °C 30.35in /  1027.7hPa Calm     18% 0.00in /  0mm 0.0 W/m2
18:52 59.4 °F /  15.2 °C 17.1 °F /  -8.3 °C 30.35in /  1027.7hPa Calm     19% 0.00in /  0mm 0.0 W/m2
18:58 58.8 °F /  14.9 °C 16.7 °F /  -8.5 °C 30.35in /  1027.7hPa Calm     19% 0.00in /  0mm 0.0 W/m2
19:05 58.1 °F /  14.5 °C 16.0 °F /  -8.9 °C 30.35in /  1027.7hPa Calm     19% 0.00in /  0mm 0.0 W/m2
19:10 57.4 °F /  14.1 °C 15.4 °F /  -9.2 °C 30.35in /  1027.7hPa Calm     19% 0.00in /  0mm 0.0 W/m2
19:17 56.8 °F /  13.8 °C 16.2 °F /  -8.8 °C 30.36in /  1028hPa Calm     20% 0.00in /  0mm 0.0 W/m2
19:23 56.5 °F /  13.6 °C 15.8 °F /  -9 °C 30.36in /  1028hPa Calm     20% 0.00in /  0mm 0.0 W/m2
19:29 55.9 °F /  13.3 °C 15.4 °F /  -9.2 °C 30.36in /  1028hPa Calm   1.0mph /  1.6km/h 20% 0.00in /  0mm 0.0 W/m2
19:35 55.6 °F /  13.1 °C 14.0 °F /  -10 °C 30.36in /  1028hPa Calm     19% 0.00in /  0mm 0.0 W/m2
19:41 55.2 °F /  12.9 °C 13.6 °F /  -10.2 °C 30.36in /  1028hPa Calm     19% 0.00in /  0mm 0.0 W/m2
19:47 54.9 °F /  12.7 °C 14.5 °F /  -9.7 °C 30.37in /  1028.3hPa Calm     20% 0.00in /  0mm 0.0 W/m2
19:53 54.5 °F /  12.5 °C 14.2 °F /  -9.9 °C 30.37in /  1028.3hPa Calm     20% 0.00in /  0mm 0.0 W/m2
20:00 54.5 °F /  12.5 °C 14.2 °F /  -9.9 °C 30.37in /  1028.3hPa Calm     20% 0.00in /  0mm 0.0 W/m2
20:06 54.3 °F /  12.4 °C 15.3 °F /  -9.3 °C 30.37in /  1028.3hPa Calm     21% 0.00in /  0mm 0.0 W/m2
20:12 54.1 °F /  12.3 °C 14.0 °F /  -10 °C 30.37in /  1028.3hPa Calm     20% 0.00in /  0mm 0.0 W/m2
20:18 54.0 °F /  12.2 °C 14.9 °F /  -9.5 °C 30.37in /  1028.3hPa Calm     21% 0.00in /  0mm 0.0 W/m2
20:24 54.0 °F /  12.2 °C 13.8 °F /  -10.1 °C 30.37in /  1028.3hPa Calm     20% 0.00in /  0mm 0.0 W/m2
20:30 54.0 °F /  12.2 °C 14.9 °F /  -9.5 °C 30.38in /  1028.7hPa Calm   2.0mph /  3.2km/h 21% 0.00in /  0mm 0.0 W/m2
20:36 53.8 °F /  12.1 °C 13.6 °F /  -10.2 °C 30.38in /  1028.7hPa East 0.9mph /  1.4km/h 2.0mph /  3.2km/h 20% 0.00in /  0mm 0.0 W/m2
20:43 53.2 °F /  11.8 °C 13.1 °F /  -10.5 °C 30.38in /  1028.7hPa Calm   2.0mph /  3.2km/h 20% 0.00in /  0mm 0.0 W/m2
20:49 53.1 °F /  11.7 °C 14.2 °F /  -9.9 °C 30.38in /  1028.7hPa Calm   1.0mph /  1.6km/h 21% 0.00in /  0mm 0.0 W/m2
20:55 52.9 °F /  11.6 °C 14.0 °F /  -10 °C 30.38in /  1028.7hPa Calm     21% 0.00in /  0mm 0.0 W/m2
21:01 52.9 °F /  11.6 °C 14.0 °F /  -10 °C 30.38in /  1028.7hPa Calm   1.0mph /  1.6km/h 21% 0.00in /  0mm 0.0 W/m2
21:07 52.5 °F /  11.4 °C 13.6 °F /  -10.2 °C 30.38in /  1028.7hPa Calm   1.0mph /  1.6km/h 21% 0.00in /  0mm 0.0 W/m2
21:13 52.5 °F /  11.4 °C 13.6 °F /  -10.2 °C 30.38in /  1028.7hPa Calm   1.0mph /  1.6km/h 21% 0.00in /  0mm 0.0 W/m2
21:20 52.3 °F /  11.3 °C 13.5 °F /  -10.3 °C 30.38in /  1028.7hPa Calm     21% 0.00in /  0mm 0.0 W/m2
21:26 52.2 °F /  11.2 °C 13.5 °F /  -10.3 °C 30.38in /  1028.7hPa Calm     21% 0.00in /  0mm 0.0 W/m2
21:32 52.0 °F /  11.1 °C 14.4 °F /  -9.8 °C 30.38in /  1028.7hPa Calm   1.0mph /  1.6km/h 22% 0.00in /  0mm 0.0 W/m2
21:38 52.0 °F /  11.1 °C 14.4 °F /  -9.8 °C 30.38in /  1028.7hPa SE 0.9mph /  1.4km/h 1.0mph /  1.6km/h 22% 0.00in /  0mm 0.0 W/m2
21:44 51.6 °F /  10.9 °C 12.9 °F /  -10.6 °C 30.38in /  1028.7hPa Calm     21% 0.00in /  0mm 0.0 W/m2
21:50 51.6 °F /  10.9 °C 14.0 °F /  -10 °C 30.38in /  1028.7hPa Calm     22% 0.00in /  0mm 0.0 W/m2
21:56 51.4 °F /  10.8 °C 13.8 °F /  -10.1 °C 30.38in /  1028.7hPa Calm     22% 0.00in /  0mm 0.0 W/m2
22:02 51.4 °F /  10.8 °C 13.8 °F /  -10.1 °C 30.38in /  1028.7hPa SE 2.0mph /  3.2km/h 4.0mph /  6.4km/h 22% 0.00in /  0mm 0.0 W/m2
22:08 51.4 °F /  10.8 °C 13.8 °F /  -10.1 °C 30.39in /  1029hPa Calm   4.0mph /  6.4km/h 22% 0.00in /  0mm 0.0 W/m2
22:15 51.6 °F /  10.9 °C 12.9 °F /  -10.6 °C 30.39in /  1029hPa East 2.9mph /  4.7km/h 3.0mph /  4.8km/h 21% 0.00in /  0mm 0.0 W/m2
22:21 51.4 °F /  10.8 °C 13.8 °F /  -10.1 °C 30.38in /  1028.7hPa Calm   3.0mph /  4.8km/h 22% 0.00in /  0mm 0.0 W/m2
22:27 51.3 °F /  10.7 °C 13.6 °F /  -10.2 °C 30.38in /  1028.7hPa Calm     22% 0.00in /  0mm 0.0 W/m2
22:33 50.7 °F /  10.4 °C 13.3 °F /  -10.4 °C 30.38in /  1028.7hPa Calm   1.0mph /  1.6km/h 22% 0.00in /  0mm 0.0 W/m2
22:39 50.5 °F /  10.3 °C 13.1 °F /  -10.5 °C 30.38in /  1028.7hPa Calm   3.0mph /  4.8km/h 22% 0.00in /  0mm 0.0 W/m2
22:46 50.2 °F /  10.1 °C 12.7 °F /  -10.7 °C 30.38in /  1028.7hPa Calm     22% 0.00in /  0mm 0.0 W/m2
22:51 49.8 °F /  9.9 °C 13.5 °F /  -10.3 °C 30.38in /  1028.7hPa Calm     23% 0.00in /  0mm 0.0 W/m2
22:57 49.8 °F /  9.9 °C 13.5 °F /  -10.3 °C 30.38in /  1028.7hPa Calm   1.0mph /  1.6km/h 23% 0.00in /  0mm 0.0 W/m2
23:04 49.8 °F /  9.9 °C 13.5 °F /  -10.3 °C 30.37in /  1028.3hPa Calm     23% 0.00in /  0mm 0.0 W/m2
23:10 49.6 °F /  9.8 °C 13.3 °F /  -10.4 °C 30.38in /  1028.7hPa Calm     23% 0.00in /  0mm 0.0 W/m2
23:16 49.6 °F /  9.8 °C 13.3 °F /  -10.4 °C 30.38in /  1028.7hPa Calm     23% 0.00in /  0mm 0.0 W/m2
23:22 49.6 °F /  9.8 °C 13.3 °F /  -10.4 °C 30.38in /  1028.7hPa Calm     23% 0.00in /  0mm 0.0 W/m2
23:28 49.1 °F /  9.5 °C 13.8 °F /  -10.1 °C 30.38in /  1028.7hPa Calm     24% 0.00in /  0mm 0.0 W/m2
23:34 48.9 °F /  9.4 °C 13.6 °F /  -10.2 °C 30.38in /  1028.7hPa Calm     24% 0.00in /  0mm 0.0 W/m2
23:40 48.9 °F /  9.4 °C 13.6 °F /  -10.2 °C 30.38in /  1028.7hPa Calm     24% 0.00in /  0mm 0.0 W/m2
23:46 48.9 °F /  9.4 °C 13.6 °F /  -10.2 °C 30.37in /  1028.3hPa SE 0.9mph /  1.4km/h 1.0mph /  1.6km/h 24% 0.00in /  0mm 0.0 W/m2
23:52 48.9 °F /  9.4 °C 13.6 °F /  -10.2 °C 30.38in /  1028.7hPa Calm     24% 0.00in /  0mm 0.0 W/m2
23:58 48.9 °F /  9.4 °C 13.6 °F /  -10.2 °C 30.37in /  1028.3hPa Calm     24% 0.00in /  0mm 0.0 W/m2
Olympia, Windhoek, Namibia
Compliments of Weather Underground - 3 mb